createdAt,value
2018-03-16T04:32:34.922Z,95.10
2018-03-16T04:35:09.519Z,95.20
2018-03-16T04:37:44.271Z,95.20
2018-03-16T04:40:18.078Z,95.00
2018-03-16T04:42:51.739Z,95.00
2018-03-16T04:45:27.026Z,95.10
2018-03-16T04:48:01.549Z,95.00
2018-03-16T04:50:35.570Z,95.00
2018-03-16T04:53:09.250Z,95.00
2018-03-16T04:55:43.886Z,95.00
2018-03-16T04:58:40.336Z,95.00
2018-03-16T05:01:14.819Z,94.80
2018-03-16T05:03:48.571Z,94.80
2018-03-16T05:06:22.429Z,94.70
2018-03-16T05:08:57.086Z,94.50
2018-03-16T05:11:30.898Z,94.40
2018-03-16T05:14:04.695Z,94.30
2018-03-16T05:16:39.634Z,94.10
2018-03-16T05:19:14.274Z,94.20
2018-03-16T05:21:48.058Z,94.20
2018-03-16T05:24:21.888Z,94.10
2018-03-16T05:26:55.679Z,94.50
2018-03-16T05:29:30.410Z,93.80
2018-03-16T05:32:04.206Z,93.70
2018-03-16T05:34:38.064Z,94.10
2018-03-16T05:37:12.001Z,94.00
2018-03-16T05:39:46.143Z,94.20
2018-03-16T05:42:19.957Z,94.20
2018-03-16T05:44:53.885Z,94.40
2018-03-16T05:47:27.921Z,94.30
2018-03-16T05:50:01.723Z,94.10
2018-03-16T05:52:36.282Z,93.80
2018-03-16T05:55:10.828Z,93.70
2018-03-16T05:57:44.806Z,93.70
2018-03-16T06:00:19.922Z,93.70
2018-03-16T06:02:53.645Z,93.70
2018-03-16T06:05:27.641Z,93.60
2018-03-16T06:08:01.399Z,93.70
2018-03-16T06:10:35.205Z,93.70
2018-03-16T06:13:10.022Z,93.60
2018-03-16T06:15:43.803Z,93.40
2018-03-16T06:18:17.744Z,93.50
2018-03-16T06:20:52.347Z,93.60
2018-03-16T06:23:27.196Z,93.60
2018-03-16T06:26:01.959Z,93.10
2018-03-16T06:28:35.809Z,92.30
2018-03-16T06:31:09.686Z,92.50
2018-03-16T06:33:44.377Z,91.90
2018-03-16T06:36:18.309Z,91.90
2018-03-16T06:38:52.135Z,92.30
2018-03-16T06:41:26.026Z,92.00
2018-03-16T06:43:59.932Z,91.80
2018-03-16T06:46:34.520Z,91.40
2018-03-16T06:49:08.285Z,91.30
2018-03-16T06:51:42.863Z,91.10
2018-03-16T06:54:16.674Z,91.00
2018-03-16T06:56:51.574Z,91.10
2018-03-16T06:59:26.238Z,91.20
2018-03-16T07:02:00.211Z,91.20
2018-03-16T07:04:34.027Z,91.00
2018-03-16T07:07:08.667Z,91.10
2018-03-16T07:09:45.946Z,91.10
2018-03-16T07:12:19.831Z,91.10
2018-03-16T07:14:53.654Z,91.60
2018-03-16T07:17:30.243Z,91.50
2018-03-16T07:20:04.038Z,91.50
2018-03-16T07:22:37.760Z,91.70
2018-03-16T07:25:11.543Z,91.90
2018-03-16T07:27:45.386Z,92.10
2018-03-16T07:30:19.177Z,91.80
2018-03-16T07:32:53.770Z,92.00
2018-03-16T07:35:28.418Z,92.00
2018-03-16T07:38:03.010Z,92.10
2018-03-16T07:40:36.752Z,92.10
2018-03-16T07:43:10.719Z,92.10
2018-03-16T07:45:50.258Z,91.90
2018-03-16T07:48:24.816Z,91.90
2018-03-16T07:50:58.662Z,91.90
2018-03-16T07:53:32.420Z,92.10
2018-03-16T07:56:06.226Z,92.00
2018-03-16T07:58:40.067Z,92.30
2018-03-16T08:01:13.830Z,92.40
2018-03-16T08:03:48.815Z,92.50
2018-03-16T08:06:22.539Z,92.10
2018-03-16T08:08:56.278Z,91.80
2018-03-16T08:11:31.177Z,91.70
2018-03-16T08:14:05.652Z,91.50
2018-03-16T08:16:39.653Z,91.50
2018-03-16T08:19:13.466Z,91.60
2018-03-16T08:21:47.281Z,91.50
2018-03-16T08:24:26.887Z,90.50
2018-03-16T08:27:00.751Z,90.50
2018-03-16T08:29:38.470Z,90.40
2018-03-16T08:32:12.458Z,89.40
2018-03-16T08:34:46.950Z,88.40
2018-03-16T08:37:20.989Z,88.40
2018-03-16T08:39:54.730Z,87.20
2018-03-16T08:42:28.642Z,87.80
2018-03-16T08:45:02.318Z,87.50
2018-03-16T08:47:36.123Z,88.10
2018-03-16T08:50:10.758Z,88.10
2018-03-16T08:52:44.641Z,88.20
2018-03-16T08:55:19.404Z,87.50
2018-03-16T08:57:53.182Z,86.50
2018-03-16T09:00:27.028Z,86.50
2018-03-16T09:03:00.890Z,86.50
2018-03-16T09:05:36.136Z,86.80
2018-03-16T09:08:10.780Z,86.80
2018-03-16T09:10:44.741Z,86.60
2018-03-16T09:13:18.728Z,86.20
2018-03-16T09:15:54.258Z,85.10
2018-03-16T09:18:28.161Z,85.10
2018-03-16T09:21:02.018Z,85.20
2018-03-16T09:23:36.555Z,85.40
2018-03-16T09:26:10.534Z,85.40
2018-03-16T09:28:44.571Z,84.00
2018-03-16T09:31:18.373Z,84.00
2018-03-16T09:33:52.210Z,83.30
2018-03-16T09:36:26.761Z,81.60
2018-03-16T09:39:00.696Z,81.60
2018-03-16T09:41:39.741Z,82.90
2018-03-16T09:44:14.255Z,82.20
2018-03-16T09:46:48.750Z,83.40
2018-03-16T09:49:22.788Z,83.40
2018-03-16T09:51:58.125Z,83.60
2018-03-16T09:54:44.840Z,83.60
2018-03-16T09:57:18.654Z,83.90
2018-03-16T09:59:53.150Z,84.20
2018-03-16T10:02:26.898Z,84.20
2018-03-16T10:05:00.690Z,84.40
2018-03-16T10:07:34.569Z,83.70
2018-03-16T10:10:08.391Z,83.50
2018-03-16T10:12:42.243Z,82.80
2018-03-16T10:15:16.058Z,81.50
2018-03-16T10:17:50.742Z,79.50
2018-03-16T10:20:25.334Z,80.90
2018-03-16T10:22:59.468Z,80.70
2018-03-16T10:25:33.296Z,80.70
2018-03-16T10:28:07.119Z,80.90
2018-03-16T10:30:41.678Z,81.20
2018-03-16T10:33:15.535Z,81.20
2018-03-16T10:35:49.299Z,80.20
2018-03-16T10:38:23.330Z,79.40
2018-03-16T10:40:57.164Z,79.50
2018-03-16T10:43:30.914Z,78.10
2018-03-16T10:46:04.815Z,78.70
2018-03-16T10:48:38.559Z,78.30
2018-03-16T10:51:13.775Z,77.60
2018-03-16T10:53:49.023Z,76.30
2018-03-16T10:56:22.994Z,77.20
2018-03-16T10:58:57.205Z,76.40
2018-03-16T11:01:36.722Z,76.70
2018-03-16T11:04:14.206Z,77.80
2018-03-16T11:06:53.815Z,75.90
2018-03-16T11:09:27.660Z,76.30
2018-03-16T11:12:02.254Z,74.60
2018-03-16T11:14:37.886Z,75.00
2018-03-16T11:17:11.725Z,75.00
2018-03-16T11:19:46.258Z,69.10
2018-03-16T11:22:20.129Z,69.10
2018-03-16T11:24:53.903Z,64.70
2018-03-16T11:27:28.367Z,62.30
2018-03-16T11:30:02.928Z,61.60
2018-03-16T11:32:36.782Z,61.60
2018-03-16T11:35:10.681Z,61.40
2018-03-16T11:37:48.384Z,61.80
2018-03-16T11:40:22.236Z,61.70
2018-03-16T11:42:56.055Z,60.60
2018-03-16T11:45:34.002Z,60.80
2018-03-16T11:48:11.399Z,62.10
2018-03-16T11:50:46.050Z,61.40
2018-03-16T11:53:19.801Z,61.30
2018-03-16T11:55:54.570Z,61.30
2018-03-16T11:58:29.037Z,60.40
2018-03-16T12:01:02.961Z,58.80
2018-03-16T12:03:36.743Z,58.30
2018-03-16T12:06:11.528Z,59.00
2018-03-16T12:08:45.393Z,60.80
2018-03-16T12:11:19.062Z,68.40
2018-03-16T12:13:52.912Z,78.30
2018-03-16T12:16:27.929Z,81.50
2018-03-16T12:19:01.884Z,81.20
2018-03-16T12:21:35.694Z,78.00
2018-03-16T12:24:09.463Z,72.50
2018-03-16T12:26:43.276Z,72.30
2018-03-16T12:29:17.226Z,73.80
2018-03-16T12:31:51.106Z,73.80
2018-03-16T12:34:24.914Z,71.80
2018-03-16T12:36:58.759Z,70.10
2018-03-16T12:39:32.653Z,70.20
2018-03-16T12:42:06.542Z,71.80
2018-03-16T12:44:41.416Z,73.30
2018-03-16T12:47:15.438Z,73.30
2018-03-16T12:49:49.549Z,74.10
2018-03-16T12:52:24.558Z,71.80
2018-03-16T12:55:04.632Z,71.70
2018-03-16T12:57:38.846Z,73.30
2018-03-16T13:00:14.086Z,69.10
2018-03-16T13:02:49.014Z,69.10
2018-03-16T13:05:24.848Z,63.70
2018-03-16T13:07:59.222Z,62.20
2018-03-16T13:10:33.910Z,61.50
2018-03-16T13:13:07.814Z,61.50
2018-03-16T13:15:41.669Z,60.10
2018-03-16T13:18:18.687Z,60.30
2018-03-16T13:20:53.044Z,59.30
2018-03-16T13:23:26.904Z,58.90
2018-03-16T13:26:01.523Z,58.50
2018-03-16T13:28:35.371Z,58.50
2018-03-16T13:31:09.975Z,58.60
2018-03-16T13:33:43.847Z,58.50
2018-03-16T13:36:18.513Z,59.00
2018-03-16T13:38:52.259Z,59.00
2018-03-16T13:41:26.866Z,54.70
2018-03-16T13:44:01.439Z,53.20
2018-03-16T13:46:35.224Z,53.20
2018-03-16T13:49:09.806Z,53.40
2018-03-16T13:51:43.687Z,53.40
2018-03-16T13:54:18.255Z,52.80
2018-03-16T13:56:53.568Z,52.20
2018-03-16T13:59:28.174Z,52.30
2018-03-16T14:02:02.056Z,52.30
2018-03-16T14:04:35.835Z,51.10
2018-03-16T14:07:10.551Z,50.30
2018-03-16T14:09:45.324Z,50.20
2018-03-16T14:12:19.203Z,49.70
2018-03-16T14:14:52.962Z,50.40
2018-03-16T14:17:30.278Z,50.60
2018-03-16T14:20:04.326Z,50.00
2018-03-16T14:22:38.071Z,49.60
2018-03-16T14:25:11.956Z,49.10
2018-03-16T14:27:45.651Z,49.60
2018-03-16T14:30:19.583Z,48.10
2018-03-16T14:32:54.182Z,48.00
2018-03-16T14:35:28.067Z,48.00
2018-03-16T14:38:02.026Z,46.80
2018-03-16T14:40:39.728Z,47.40
2018-03-16T14:43:13.642Z,47.50
2018-03-16T14:45:48.263Z,48.90
2018-03-16T14:48:22.107Z,48.20
2018-03-16T14:50:56.027Z,49.00
2018-03-16T14:53:30.709Z,49.40
2018-03-16T14:56:05.347Z,49.10
2018-03-16T14:58:47.704Z,49.10
2018-03-16T15:01:23.274Z,50.10
2018-03-16T15:03:57.202Z,50.10
2018-03-16T15:06:31.031Z,50.30
2018-03-16T15:09:05.833Z,49.50
2018-03-16T15:11:39.655Z,49.50
2018-03-16T15:14:13.493Z,49.50
2018-03-16T15:16:47.351Z,49.40
2018-03-16T15:19:21.199Z,49.60
2018-03-16T15:21:57.059Z,49.80
2018-03-16T15:24:31.714Z,50.00
2018-03-16T15:27:06.372Z,51.40
2018-03-16T15:29:40.131Z,50.90
2018-03-16T15:32:14.033Z,50.80
2018-03-16T15:34:49.380Z,51.60
2018-03-16T15:37:23.237Z,51.60
2018-03-16T15:39:57.121Z,50.00
2018-03-16T15:42:30.916Z,49.90
2018-03-16T15:45:04.772Z,49.50
2018-03-16T15:47:39.319Z,48.60
2018-03-16T15:50:13.170Z,48.50
2018-03-16T15:52:47.876Z,47.90
2018-03-16T15:55:22.498Z,47.40
2018-03-16T15:57:56.269Z,47.20
2018-03-16T16:00:31.842Z,48.30
2018-03-16T16:03:05.747Z,48.30
2018-03-16T16:05:39.583Z,49.20
2018-03-16T16:08:13.500Z,49.30
2018-03-16T16:10:48.351Z,48.90
2018-03-16T16:13:22.951Z,50.30
2018-03-16T16:15:56.660Z,50.30
2018-03-16T16:18:31.265Z,51.30
2018-03-16T16:21:05.214Z,51.40
2018-03-16T16:23:39.800Z,51.40
2018-03-16T16:26:13.553Z,51.40
2018-03-16T16:28:47.351Z,52.40
2018-03-16T16:31:21.264Z,52.50
2018-03-16T16:33:55.292Z,53.00
2018-03-16T16:36:29.856Z,52.10
2018-03-16T16:39:05.621Z,52.00
2018-03-16T16:41:39.233Z,52.00
2018-03-16T16:44:13.013Z,51.60
2018-03-16T16:46:46.870Z,51.70
2018-03-16T16:49:21.469Z,52.70
2018-03-16T16:51:55.321Z,52.70
2018-03-16T16:54:29.853Z,53.00
2018-03-16T16:57:04.508Z,54.20
2018-03-16T16:59:38.292Z,53.70
2018-03-16T17:02:12.473Z,53.70
2018-03-16T17:04:46.205Z,53.80
2018-03-16T17:07:20.090Z,54.50
2018-03-16T17:09:53.866Z,54.70
2018-03-16T17:12:28.447Z,55.00
2018-03-16T17:15:03.804Z,55.00
2018-03-16T17:17:38.383Z,55.90
2018-03-16T17:20:12.464Z,55.90
2018-03-16T17:22:47.479Z,55.20
2018-03-16T17:25:21.176Z,54.80
2018-03-16T17:27:55.057Z,55.10
2018-03-16T17:30:28.892Z,54.60
2018-03-16T17:33:02.684Z,55.60
2018-03-16T17:35:36.573Z,55.90
2018-03-16T17:38:10.297Z,56.70
2018-03-16T17:40:44.136Z,57.00
2018-03-16T17:43:18.718Z,58.00
2018-03-16T17:45:52.448Z,57.90
2018-03-16T17:48:26.264Z,58.90
2018-03-16T17:51:00.105Z,59.20
2018-03-16T17:53:33.923Z,59.50
2018-03-16T17:56:08.607Z,61.60
2018-03-16T17:58:43.210Z,62.10
2018-03-16T18:01:16.896Z,61.90
2018-03-16T18:03:50.641Z,63.00
2018-03-16T18:06:25.257Z,63.70
2018-03-16T18:08:59.089Z,63.70
2018-03-16T18:11:32.896Z,64.80
2018-03-16T18:14:06.680Z,64.90
2018-03-16T18:16:40.503Z,65.10
2018-03-16T18:19:14.992Z,66.20
2018-03-16T18:21:48.700Z,66.30
2018-03-16T18:24:22.476Z,67.50
2018-03-16T18:26:56.329Z,67.60
2018-03-16T18:29:30.120Z,67.80
2018-03-16T18:32:03.870Z,69.00
2018-03-16T18:34:37.748Z,69.20
2018-03-16T18:37:12.565Z,70.60
2018-03-16T18:39:46.293Z,70.50
2018-03-16T18:42:20.125Z,70.80
2018-03-16T18:44:53.914Z,70.90
2018-03-16T18:47:27.689Z,70.60
2018-03-16T18:50:01.561Z,71.20
2018-03-16T18:52:35.346Z,70.80
2018-03-16T18:55:09.021Z,71.50
2018-03-16T18:57:43.534Z,72.40
2018-03-16T19:00:18.123Z,72.80
2018-03-16T19:02:51.823Z,73.10
2018-03-16T19:05:26.245Z,73.60
2018-03-16T19:08:00.045Z,73.50
2018-03-16T19:10:33.917Z,73.00
2018-03-16T19:13:08.032Z,73.30
2018-03-16T19:15:41.856Z,73.60
2018-03-16T19:18:15.821Z,73.50
2018-03-16T19:20:49.484Z,73.70
2018-03-16T19:23:23.273Z,74.10
2018-03-16T19:25:57.634Z,74.80
2018-03-16T19:28:31.468Z,74.80
2018-03-16T19:31:05.196Z,75.20
2018-03-16T19:33:38.924Z,75.90
2018-03-16T19:36:12.692Z,75.40
2018-03-16T19:38:47.478Z,76.10
2018-03-16T19:41:21.304Z,76.00
2018-03-16T19:43:55.120Z,76.70
2018-03-16T19:46:28.884Z,76.20
2018-03-16T19:49:02.724Z,77.30
2018-03-16T19:51:36.529Z,76.80
2018-03-16T19:54:10.336Z,77.20
2018-03-16T19:56:44.853Z,77.80
2018-03-16T19:59:18.501Z,77.80
2018-03-16T20:01:52.412Z,77.30
2018-03-16T20:04:26.967Z,78.70
2018-03-16T20:07:00.738Z,78.00
2018-03-16T20:09:35.096Z,77.50
2018-03-16T20:12:08.938Z,77.50
2018-03-16T20:14:42.680Z,77.70
2018-03-16T20:17:17.346Z,77.90
2018-03-16T20:19:51.066Z,77.80
2018-03-16T20:22:24.789Z,78.00
2018-03-16T20:24:58.573Z,77.90
2018-03-16T20:27:32.301Z,78.40
2018-03-16T20:30:06.081Z,78.90
2018-03-16T20:32:39.901Z,78.80
2018-03-16T20:35:14.486Z,81.00
2018-03-16T20:37:48.248Z,80.90
2018-03-16T20:40:22.808Z,83.40
2018-03-16T20:42:56.576Z,83.40
2018-03-16T20:45:30.338Z,83.70
2018-03-16T20:48:04.088Z,84.50
2018-03-16T20:50:38.646Z,85.60
2018-03-16T20:53:12.540Z,85.50
2018-03-16T20:55:46.292Z,86.10
2018-03-16T20:58:20.302Z,86.30
2018-03-16T21:00:53.962Z,86.60
2018-03-16T21:03:27.817Z,86.70
2018-03-16T21:06:01.609Z,87.20
2018-03-16T21:08:35.263Z,87.70
2018-03-16T21:11:09.016Z,87.80
2018-03-16T21:13:42.681Z,87.60
2018-03-16T21:16:16.451Z,88.30
2018-03-16T21:18:50.168Z,88.80
2018-03-16T21:21:26.884Z,89.20
2018-03-16T21:24:00.460Z,89.20
2018-03-16T21:26:34.286Z,89.10
2018-03-16T21:29:08.036Z,89.20
2018-03-16T21:31:41.724Z,89.10
2018-03-16T21:34:15.492Z,90.10
2018-03-16T21:36:49.240Z,90.10
2018-03-16T21:39:23.036Z,90.20
2018-03-16T21:41:56.821Z,90.30
2018-03-16T21:44:31.074Z,90.50
2018-03-16T21:47:04.766Z,90.60
2018-03-16T21:49:38.616Z,90.80
2018-03-16T21:52:12.375Z,90.70
2018-03-16T21:54:46.216Z,91.00
2018-03-16T21:57:20.070Z,91.30
2018-03-16T21:59:53.878Z,91.30
